createdAt,value
2023-01-06T00:00:11.170Z,99929.06
2023-01-06T00:02:39.943Z,99929.06
2023-01-06T00:05:09.649Z,99929.88
2023-01-06T00:07:39.217Z,99925.56
2023-01-06T00:10:09.306Z,99917.88
2023-01-06T00:12:39.431Z,99918.81
2023-01-06T00:15:09.191Z,99927.19
2023-01-06T00:17:37.899Z,99916.16
2023-01-06T00:20:08.379Z,99919.63
2023-01-06T00:22:37.096Z,99911.84
2023-01-06T00:25:06.662Z,99912.66
2023-01-06T00:27:35.315Z,99912.66
2023-01-06T00:30:07.116Z,99914.41
2023-01-06T00:32:35.772Z,99913.50
2023-01-06T00:35:04.934Z,99908.38
2023-01-06T00:37:33.690Z,99904.97
2023-01-06T00:40:02.319Z,99914.41
2023-01-06T00:42:31.014Z,99907.53
2023-01-06T00:44:59.630Z,99906.63
2023-01-06T00:47:29.602Z,99909.19
2023-01-06T00:49:58.233Z,99904.06
2023-01-06T00:52:26.897Z,99909.19
2023-01-06T00:54:55.593Z,99904.91
2023-01-06T00:57:24.327Z,99902.34
2023-01-06T00:59:52.968Z,99904.06
2023-01-06T01:02:21.799Z,99910.03
2023-01-06T01:04:51.855Z,99895.47
2023-01-06T01:07:20.521Z,99894.66
2023-01-06T01:09:49.114Z,99892.09
2023-01-06T01:12:17.941Z,99896.28
2023-01-06T01:14:49.935Z,99890.34
2023-01-06T01:17:21.011Z,99887.78
2023-01-06T01:19:54.461Z,99893.72
2023-01-06T01:22:23.958Z,99894.66
2023-01-06T01:24:52.789Z,99892.91
2023-01-06T01:27:21.503Z,99892.00
2023-01-06T01:29:50.254Z,99898.84
2023-01-06T01:32:18.905Z,99889.53
2023-01-06T01:34:47.555Z,99884.44
2023-01-06T01:37:17.579Z,99894.66
2023-01-06T01:39:46.265Z,99897.22
2023-01-06T01:42:20.529Z,99887.78
2023-01-06T01:45:02.659Z,99878.47
2023-01-06T01:47:47.389Z,99893.00
2023-01-06T01:50:27.059Z,99871.69
2023-01-06T01:53:02.147Z,99876.81
2023-01-06T01:55:33.095Z,99875.09
2023-01-06T01:58:06.161Z,99879.31
2023-01-06T02:00:36.629Z,99886.16
2023-01-06T02:03:07.354Z,99890.47
2023-01-06T02:05:42.868Z,99890.47
2023-01-06T02:08:22.963Z,99886.16
2023-01-06T02:10:51.615Z,99885.34
2023-01-06T02:13:20.423Z,99878.47
2023-01-06T02:15:51.167Z,99878.47
2023-01-06T02:18:36.977Z,99875.91
2023-01-06T02:21:31.807Z,99881.03
2023-01-06T02:24:50.325Z,99876.00
2023-01-06T02:28:05.137Z,99876.09
2023-01-06T02:31:19.396Z,99883.88
2023-01-06T02:33:54.183Z,99888.09
2023-01-06T02:36:32.783Z,99881.13
2023-01-06T02:39:17.732Z,99868.41
2023-01-06T02:41:54.591Z,99874.34
2023-01-06T02:44:31.186Z,99876.00
2023-01-06T02:47:15.170Z,99873.44
2023-01-06T02:49:50.029Z,99870.06
2023-01-06T02:52:31.300Z,99870.88
2023-01-06T02:55:06.831Z,99870.06
2023-01-06T02:57:43.475Z,99872.53
2023-01-06T03:00:20.818Z,99876.00
2023-01-06T03:02:58.114Z,99879.38
2023-01-06T03:05:28.496Z,99871.69
2023-01-06T03:07:59.059Z,99874.25
2023-01-06T03:10:30.700Z,99869.13
2023-01-06T03:13:05.730Z,99867.41
2023-01-06T03:15:36.009Z,99866.56
2023-01-06T03:18:06.880Z,99867.41
2023-01-06T03:20:37.699Z,99868.22
2023-01-06T03:23:07.518Z,99867.41
2023-01-06T03:25:39.532Z,99869.97
2023-01-06T03:28:09.822Z,99859.72
2023-01-06T03:30:47.047Z,99854.63
2023-01-06T03:33:24.813Z,99857.16
2023-01-06T03:36:09.332Z,99867.41
2023-01-06T03:38:50.480Z,99868.31
2023-01-06T03:41:51.904Z,99865.88
2023-01-06T03:44:32.344Z,99866.69
2023-01-06T03:47:07.904Z,99863.31
2023-01-06T03:49:46.683Z,99863.31
2023-01-06T03:52:23.574Z,99858.19
2023-01-06T03:54:59.123Z,99866.78
2023-01-06T03:57:35.087Z,99862.50
2023-01-06T04:00:12.539Z,99858.19
2023-01-06T04:02:49.586Z,99848.84
2023-01-06T04:05:25.120Z,99845.47
2023-01-06T04:07:54.788Z,99845.47
2023-01-06T04:10:25.411Z,99842.00
2023-01-06T04:12:58.392Z,99837.81
2023-01-06T04:15:32.654Z,99836.06
2023-01-06T04:18:03.841Z,99839.44
2023-01-06T04:20:36.992Z,99839.44
2023-01-06T04:23:14.825Z,99828.38
2023-01-06T04:25:45.192Z,99826.66
2023-01-06T04:28:40.235Z,99821.59
2023-01-06T04:31:10.207Z,99822.44
2023-01-06T04:33:39.471Z,99816.41
2023-01-06T04:36:12.831Z,99810.34
2023-01-06T04:38:45.164Z,99816.41
2023-01-06T04:41:13.955Z,99811.28
2023-01-06T04:43:42.577Z,99804.31
2023-01-06T04:46:11.259Z,99801.88
2023-01-06T04:48:40.019Z,99797.56
2023-01-06T04:51:10.293Z,99796.75
2023-01-06T04:53:42.612Z,99801.06
2023-01-06T04:56:14.022Z,99799.31
2023-01-06T04:58:42.671Z,99801.88
2023-01-06T05:01:13.253Z,99802.66
2023-01-06T05:03:43.164Z,99795.94
2023-01-06T05:06:13.247Z,99797.56
2023-01-06T05:08:44.788Z,99795.00
2023-01-06T05:11:18.167Z,99787.31
2023-01-06T05:13:47.005Z,99795.94
2023-01-06T05:16:20.285Z,99789.88
2023-01-06T05:18:49.004Z,99783.13
2023-01-06T05:21:18.062Z,99782.19
2023-01-06T05:23:48.204Z,99781.38
2023-01-06T05:26:20.111Z,99788.25
2023-01-06T05:28:49.195Z,99791.63
2023-01-06T05:31:18.484Z,99797.56
2023-01-06T05:33:47.306Z,99800.22
2023-01-06T05:36:18.273Z,99805.34
2023-01-06T05:38:53.745Z,99810.56
2023-01-06T05:41:22.484Z,99808.81
2023-01-06T05:43:51.105Z,99817.31
2023-01-06T05:46:19.785Z,99810.56
2023-01-06T05:48:48.442Z,99813.94
2023-01-06T05:51:18.367Z,99816.59
2023-01-06T05:53:49.488Z,99804.63
2023-01-06T05:56:20.818Z,99815.78
2023-01-06T05:58:53.375Z,99816.59
2023-01-06T06:01:25.717Z,99816.59
2023-01-06T06:03:55.574Z,99812.41
2023-01-06T06:06:26.831Z,99809.00
2023-01-06T06:08:56.878Z,99803.88
2023-01-06T06:11:25.876Z,99820.09
2023-01-06T06:13:56.458Z,99813.31
2023-01-06T06:16:28.141Z,99812.47
2023-01-06T06:18:59.892Z,99812.47
2023-01-06T06:21:31.333Z,99812.47
2023-01-06T06:24:01.893Z,99816.06
2023-01-06T06:26:30.797Z,99815.13
2023-01-06T06:28:59.435Z,99808.41
2023-01-06T06:31:30.167Z,99819.53
2023-01-06T06:34:01.145Z,99821.25
2023-01-06T06:36:31.298Z,99816.13
2023-01-06T06:39:02.363Z,99816.97
2023-01-06T06:41:31.206Z,99816.13
2023-01-06T06:44:00.057Z,99817.88
2023-01-06T06:46:28.673Z,99821.38
2023-01-06T06:48:57.340Z,99819.69
2023-01-06T06:51:26.010Z,99823.06
2023-01-06T06:53:54.646Z,99823.06
2023-01-06T06:56:24.764Z,99828.19
2023-01-06T06:58:53.521Z,99830.00
2023-01-06T07:01:25.821Z,99843.56
2023-01-06T07:03:54.451Z,99835.97
2023-01-06T07:06:27.918Z,99824.91
2023-01-06T07:08:57.460Z,99824.91
2023-01-06T07:11:27.538Z,99836.06
2023-01-06T07:13:56.160Z,99842.00
2023-01-06T07:16:26.759Z,99838.63
2023-01-06T07:18:55.419Z,99837.78
2023-01-06T07:21:24.210Z,99842.91
2023-01-06T07:23:52.871Z,99846.38
2023-01-06T07:26:21.498Z,99850.59
2023-01-06T07:28:51.439Z,99856.63
2023-01-06T07:31:20.283Z,99856.63
2023-01-06T07:33:48.903Z,99852.44
2023-01-06T07:36:17.543Z,99843.91
2023-01-06T07:38:46.219Z,99850.69
2023-01-06T07:41:14.856Z,99855.81
2023-01-06T07:43:43.521Z,99853.34
2023-01-06T07:46:13.610Z,99868.69
2023-01-06T07:48:42.317Z,99878.94
2023-01-06T07:51:10.981Z,99884.06
2023-01-06T07:53:39.673Z,99881.50
2023-01-06T07:56:08.774Z,99878.13
2023-01-06T07:58:37.414Z,99880.69
2023-01-06T08:01:09.847Z,99876.47
2023-01-06T08:03:39.860Z,99878.19
2023-01-06T08:06:10.623Z,99896.09
2023-01-06T08:08:40.370Z,99891.94
2023-01-06T08:11:12.803Z,99900.41
2023-01-06T08:13:41.630Z,99900.50
2023-01-06T08:16:12.011Z,99895.41
2023-01-06T08:18:42.389Z,99903.06
2023-01-06T08:21:12.664Z,99895.41
2023-01-06T08:23:41.502Z,99903.19
2023-01-06T08:26:13.671Z,99904.81
2023-01-06T08:28:43.190Z,99909.19
2023-01-06T08:31:12.955Z,99920.25
2023-01-06T08:33:43.303Z,99921.19
2023-01-06T08:36:17.825Z,99920.25
2023-01-06T08:38:47.291Z,99927.19
2023-01-06T08:41:16.623Z,99914.41
2023-01-06T08:43:47.496Z,99913.56
2023-01-06T08:46:19.502Z,99905.88
2023-01-06T08:48:50.362Z,99901.63
2023-01-06T08:51:23.723Z,99905.19
2023-01-06T08:53:53.827Z,99912.03
2023-01-06T08:56:24.901Z,99923.91
2023-01-06T08:58:54.279Z,99917.16
2023-01-06T09:01:25.932Z,99913.66
2023-01-06T09:03:56.165Z,99918.78
2023-01-06T09:06:25.053Z,99913.66
2023-01-06T09:08:53.774Z,99913.66
2023-01-06T09:11:22.461Z,99908.53
2023-01-06T09:13:52.078Z,99908.53
2023-01-06T09:16:21.398Z,99903.34
2023-01-06T09:18:50.647Z,99903.34
2023-01-06T09:21:22.947Z,99899.06
2023-01-06T09:23:52.261Z,99893.94
2023-01-06T09:26:21.812Z,99898.16
2023-01-06T09:28:50.633Z,99890.47
2023-01-06T09:31:19.400Z,99891.28
2023-01-06T09:33:48.589Z,99903.19
2023-01-06T09:36:17.148Z,99909.09
2023-01-06T09:38:47.192Z,99916.78
2023-01-06T09:42:01.456Z,99926.19
2023-01-06T09:44:33.263Z,99923.75
2023-01-06T09:47:03.824Z,99925.38
2023-01-06T09:49:40.518Z,99917.69
2023-01-06T09:52:20.138Z,99913.41
2023-01-06T09:54:57.726Z,99909.09
2023-01-06T09:57:35.171Z,99901.44
2023-01-06T10:00:09.113Z,99902.25
2023-01-06T10:02:40.814Z,99901.44
2023-01-06T10:05:22.010Z,99902.25
2023-01-06T10:08:00.446Z,99910.75
2023-01-06T10:10:40.443Z,99909.09
2023-01-06T10:13:32.927Z,99910.84
2023-01-06T10:16:12.232Z,99921.09
2023-01-06T10:18:52.009Z,99930.41
2023-01-06T10:21:32.136Z,99927.91
2023-01-06T10:24:35.158Z,99928.75
2023-01-06T10:27:22.014Z,99919.44
2023-01-06T10:29:52.133Z,99913.41
2023-01-06T10:32:20.796Z,99917.63
2023-01-06T10:34:52.293Z,99927.84
2023-01-06T10:37:25.967Z,99921.78
2023-01-06T10:40:03.362Z,99927.84
2023-01-06T10:43:00.307Z,99927.75
2023-01-06T10:45:33.954Z,99922.75
2023-01-06T10:48:04.578Z,99921.78
2023-01-06T10:50:35.838Z,99914.97
2023-01-06T10:53:05.741Z,99913.22
2023-01-06T10:55:42.929Z,99911.47
2023-01-06T10:58:33.220Z,99916.59
2023-01-06T11:01:08.356Z,99904.72
2023-01-06T11:03:37.831Z,99909.84
2023-01-06T11:06:15.761Z,99908.00
2023-01-06T11:08:44.418Z,99914.78
2023-01-06T11:11:27.707Z,99913.13
2023-01-06T11:14:03.510Z,99913.13
2023-01-06T11:16:33.888Z,99908.00
2023-01-06T11:19:06.384Z,99912.31
2023-01-06T11:21:41.631Z,99908.00
2023-01-06T11:24:19.906Z,99891.00
2023-01-06T11:26:54.528Z,99908.00
2023-01-06T11:29:31.532Z,99901.16
2023-01-06T11:32:06.915Z,99897.75
2023-01-06T11:34:35.730Z,99903.72
2023-01-06T11:37:04.386Z,99894.28
2023-01-06T11:39:36.409Z,99893.38
2023-01-06T11:42:11.788Z,99888.28
2023-01-06T11:44:43.484Z,99880.59
2023-01-06T11:47:17.407Z,99872.06
2023-01-06T11:49:50.825Z,99872.06
2023-01-06T11:52:25.911Z,99866.13
2023-01-06T11:55:02.465Z,99855.00
2023-01-06T11:57:41.776Z,99847.31
2023-01-06T12:00:39.907Z,99848.22
2023-01-06T12:03:18.828Z,99852.53
2023-01-06T12:05:53.313Z,99852.53
2023-01-06T12:08:26.008Z,99848.22
2023-01-06T12:11:01.289Z,99843.09
2023-01-06T12:13:32.235Z,99838.00
2023-01-06T12:16:08.162Z,99839.63
2023-01-06T12:18:39.758Z,99842.19
2023-01-06T12:21:15.278Z,99849.88
2023-01-06T12:23:46.838Z,99854.16
2023-01-06T12:26:31.580Z,99847.31
2023-01-06T12:29:01.365Z,99854.16
2023-01-06T12:31:45.202Z,99850.69
2023-01-06T12:34:21.458Z,99850.78
2023-01-06T12:36:54.430Z,99849.88
2023-01-06T12:39:33.719Z,99845.66
2023-01-06T12:42:14.958Z,99848.22
2023-01-06T12:44:50.562Z,99852.44
2023-01-06T12:47:29.051Z,99854.16
2023-01-06T12:50:02.361Z,99853.34
2023-01-06T12:52:36.471Z,99867.78
2023-01-06T12:55:08.003Z,99861.84
2023-01-06T12:58:00.849Z,99856.81
2023-01-06T13:00:43.261Z,99856.00
2023-01-06T13:04:05.239Z,99864.59
2023-01-06T13:06:54.230Z,99864.59
2023-01-06T13:09:40.384Z,99856.91
2023-01-06T13:12:48.303Z,99869.72
2023-01-06T13:15:24.234Z,99866.34
2023-01-06T13:18:09.872Z,99874.00
2023-01-06T13:20:43.914Z,99865.41
2023-01-06T13:23:48.223Z,99863.78
2023-01-06T13:26:49.268Z,99861.22
2023-01-06T13:29:33.664Z,99856.09
2023-01-06T13:32:30.235Z,99852.69
2023-01-06T13:35:25.755Z,99854.44
2023-01-06T13:38:09.633Z,99863.78
2023-01-06T13:40:41.750Z,99862.84
2023-01-06T13:43:19.866Z,99850.03
2023-01-06T13:45:54.532Z,99854.25
2023-01-06T13:48:28.662Z,99851.69
2023-01-06T13:50:57.667Z,99861.03
2023-01-06T13:53:27.412Z,99858.47
2023-01-06T13:56:31.878Z,99867.97
2023-01-06T13:59:23.184Z,99866.34
2023-01-06T14:01:55.897Z,99865.41
2023-01-06T14:04:51.900Z,99855.16
2023-01-06T14:07:36.929Z,99865.41
2023-01-06T14:10:18.115Z,99865.41
2023-01-06T14:12:49.965Z,99867.88
2023-01-06T14:15:26.892Z,99870.44
2023-01-06T14:17:55.606Z,99870.44
2023-01-06T14:20:31.180Z,99874.63
2023-01-06T14:23:02.116Z,99877.19
2023-01-06T14:25:31.378Z,99883.16
2023-01-06T14:28:27.926Z,99878.03
2023-01-06T14:31:42.571Z,99885.81
2023-01-06T14:34:14.401Z,99882.41
2023-01-06T14:36:43.585Z,99879.84
2023-01-06T14:39:22.519Z,99884.88
2023-01-06T14:42:02.994Z,99886.53
2023-01-06T14:44:44.324Z,99880.59
2023-01-06T14:47:19.612Z,99875.47
2023-01-06T14:49:57.105Z,99872.91
2023-01-06T14:52:33.950Z,99873.72
2023-01-06T14:55:04.967Z,99871.97
2023-01-06T14:57:36.550Z,99877.09
2023-01-06T15:00:27.149Z,99877.09
2023-01-06T15:02:59.136Z,99882.22
2023-01-06T15:05:31.564Z,99881.41
2023-01-06T15:08:03.276Z,99882.22
2023-01-06T15:10:35.599Z,99877.09
2023-01-06T15:13:04.851Z,99875.38
2023-01-06T15:15:38.223Z,99883.97
2023-01-06T15:18:09.264Z,99885.63
2023-01-06T15:20:43.395Z,99888.97
2023-01-06T15:23:17.389Z,99883.84
2023-01-06T15:25:50.168Z,99886.41
2023-01-06T15:28:26.296Z,99877.94
2023-01-06T15:30:57.367Z,99879.66
2023-01-06T15:33:29.642Z,99879.66
2023-01-06T15:35:59.499Z,99883.06
2023-01-06T15:38:32.540Z,99877.94
2023-01-06T15:41:01.733Z,99881.31
2023-01-06T15:43:42.587Z,99875.28
2023-01-06T15:46:14.030Z,99863.38
2023-01-06T15:48:48.823Z,99876.19
2023-01-06T15:51:21.704Z,99878.75
2023-01-06T15:53:57.773Z,99884.69
2023-01-06T15:56:29.549Z,99878.84
2023-01-06T15:59:00.175Z,99877.03
2023-01-06T16:01:30.352Z,99878.75
2023-01-06T16:04:02.028Z,99878.75
2023-01-06T16:06:32.898Z,99879.59
2023-01-06T16:09:30.792Z,99877.94
2023-01-06T16:12:16.983Z,99883.06
2023-01-06T16:14:49.107Z,99883.06
2023-01-06T16:17:30.599Z,99883.06
2023-01-06T16:20:02.518Z,99881.41
2023-01-06T16:22:36.269Z,99888.16
2023-01-06T16:25:09.536Z,99890.72
2023-01-06T16:27:38.350Z,99883.84
2023-01-06T16:30:24.861Z,99884.78
2023-01-06T16:32:56.063Z,99888.16
2023-01-06T16:35:27.397Z,99895.00
2023-01-06T16:37:56.395Z,99892.44
2023-01-06T16:40:27.453Z,99894.19
2023-01-06T16:43:00.378Z,99902.69
2023-01-06T16:45:36.455Z,99900.97
2023-01-06T16:48:07.080Z,99902.69
2023-01-06T16:50:41.588Z,99900.13
2023-01-06T16:53:16.767Z,99904.34
2023-01-06T16:55:45.879Z,99902.69
2023-01-06T16:58:18.822Z,99901.88
2023-01-06T17:00:52.562Z,99899.31
2023-01-06T17:03:25.280Z,99897.56
2023-01-06T17:05:54.714Z,99898.50
2023-01-06T17:08:29.773Z,99890.81
2023-01-06T17:11:01.404Z,99886.53
2023-01-06T17:13:38.995Z,99895.94
2023-01-06T17:16:21.315Z,99890.81
2023-01-06T17:18:55.210Z,99888.38
2023-01-06T17:21:27.309Z,99898.59
2023-01-06T17:23:59.542Z,99896.84
2023-01-06T17:26:28.796Z,99899.41
2023-01-06T17:28:59.220Z,99896.03
2023-01-06T17:31:33.834Z,99902.88
2023-01-06T17:34:13.812Z,99897.75
2023-01-06T17:36:46.325Z,99904.63
2023-01-06T17:39:20.634Z,99908.84
2023-01-06T17:41:49.391Z,99906.34
2023-01-06T17:44:21.070Z,99912.31
2023-01-06T17:46:49.926Z,99908.00
2023-01-06T17:49:36.315Z,99923.34
2023-01-06T17:52:17.442Z,99911.47
2023-01-06T17:55:13.085Z,99909.84
2023-01-06T17:57:46.959Z,99913.31
2023-01-06T18:00:24.182Z,99906.34
2023-01-06T18:02:59.112Z,99909.84
2023-01-06T18:06:21.039Z,99906.53
2023-01-06T18:08:51.764Z,99915.88
2023-01-06T18:11:33.645Z,99909.84
2023-01-06T18:14:34.101Z,99908.19
2023-01-06T18:17:17.388Z,99915.06
2023-01-06T18:19:46.129Z,99909.94
2023-01-06T18:22:19.956Z,99906.53
2023-01-06T18:24:51.052Z,99918.44
2023-01-06T18:27:25.063Z,99917.53
2023-01-06T18:29:54.542Z,99919.25
2023-01-06T18:32:31.428Z,99910.66
2023-01-06T18:35:02.549Z,99902.16
2023-01-06T18:37:36.957Z,99916.59
2023-01-06T18:40:09.251Z,99915.78
2023-01-06T18:42:39.483Z,99908.09
2023-01-06T18:45:24.015Z,99907.19
2023-01-06T18:47:57.027Z,99910.66
2023-01-06T18:50:33.955Z,99907.19
2023-01-06T18:53:15.973Z,99914.03
2023-01-06T18:55:46.205Z,99917.53
2023-01-06T18:58:39.032Z,99922.63
2023-01-06T19:01:19.583Z,99914.97
2023-01-06T19:04:02.807Z,99920.09
2023-01-06T19:06:42.046Z,99919.25
2023-01-06T19:09:20.075Z,99912.41
2023-01-06T19:11:55.275Z,99925.19
2023-01-06T19:14:23.890Z,99912.41
2023-01-06T19:16:56.230Z,99921.69
2023-01-06T19:19:29.953Z,99918.34
2023-01-06T19:22:24.122Z,99925.19
2023-01-06T19:25:01.358Z,99931.13
2023-01-06T19:27:40.793Z,99923.44
2023-01-06T19:30:42.412Z,99921.00
2023-01-06T19:33:37.494Z,99933.78
2023-01-06T19:36:37.986Z,99924.47
2023-01-06T19:39:26.355Z,99927.00
2023-01-06T19:42:01.858Z,99914.22
2023-01-06T19:44:34.659Z,99915.06
2023-01-06T19:47:18.681Z,99917.63
2023-01-06T19:49:52.913Z,99910.75
2023-01-06T19:52:35.437Z,99921.00
2023-01-06T19:55:20.788Z,99918.44
2023-01-06T19:57:54.081Z,99913.31
2023-01-06T20:00:30.653Z,99918.44
2023-01-06T20:03:03.570Z,99913.31
2023-01-06T20:05:33.095Z,99914.13
2023-01-06T20:08:01.721Z,99903.88
2023-01-06T20:10:30.374Z,99914.97
2023-01-06T20:13:00.338Z,99914.13
2023-01-06T20:15:28.989Z,99914.97
2023-01-06T20:17:57.588Z,99915.78
2023-01-06T20:20:26.233Z,99914.97
2023-01-06T20:22:54.888Z,99913.22
2023-01-06T20:25:23.640Z,99915.78
2023-01-06T20:27:53.726Z,99915.78
2023-01-06T20:30:23.725Z,99911.47
2023-01-06T20:32:52.350Z,99910.66
2023-01-06T20:35:21.243Z,99909.75
2023-01-06T20:37:50.091Z,99914.88
2023-01-06T20:40:19.391Z,99906.34
2023-01-06T20:42:48.037Z,99909.75
2023-01-06T20:45:16.719Z,99911.47
2023-01-06T20:47:46.777Z,99905.53
2023-01-06T20:50:16.727Z,99919.13
2023-01-06T20:52:46.408Z,99922.53
2023-01-06T20:55:16.120Z,99916.59
2023-01-06T20:57:44.777Z,99919.13
2023-01-06T21:00:14.884Z,99914.03
2023-01-06T21:02:43.561Z,99909.84
2023-01-06T21:05:13.833Z,99918.22
2023-01-06T21:07:42.494Z,99904.63
2023-01-06T21:10:11.434Z,99902.06
2023-01-06T21:12:40.178Z,99901.22
2023-01-06T21:15:10.477Z,99899.59
2023-01-06T21:17:39.472Z,99903.78
2023-01-06T21:20:10.490Z,99906.34
2023-01-06T21:22:40.559Z,99909.75
2023-01-06T21:25:10.137Z,99904.63
2023-01-06T21:27:38.722Z,99903.78
2023-01-06T21:30:08.766Z,99892.66
2023-01-06T21:32:37.424Z,99890.09
2023-01-06T21:35:06.757Z,99880.75
2023-01-06T21:37:35.386Z,99879.84
2023-01-06T21:40:08.303Z,99881.59
2023-01-06T21:42:54.504Z,99876.47
2023-01-06T21:45:23.557Z,99871.47
2023-01-06T21:47:52.386Z,99881.59
2023-01-06T21:50:23.591Z,99868.78
2023-01-06T21:52:54.652Z,99880.75
2023-01-06T21:55:25.362Z,99884.25
2023-01-06T21:57:54.203Z,99891.00
2023-01-06T22:00:22.952Z,99891.00
2023-01-06T22:02:54.719Z,99886.72
2023-01-06T22:05:23.985Z,99887.63
2023-01-06T22:07:54.402Z,99891.00
2023-01-06T22:10:27.436Z,99891.00
2023-01-06T22:12:59.215Z,99894.41
2023-01-06T22:15:29.296Z,99902.06
2023-01-06T22:18:00.254Z,99891.84
2023-01-06T22:20:31.561Z,99883.31
2023-01-06T22:23:02.313Z,99888.44
2023-01-06T22:25:32.662Z,99885.88
2023-01-06T22:28:03.170Z,99888.44
2023-01-06T22:30:31.961Z,99891.00
2023-01-06T22:33:00.568Z,99885.88
2023-01-06T22:35:29.252Z,99893.56
2023-01-06T22:37:59.203Z,99891.00
2023-01-06T22:40:28.485Z,99890.19
2023-01-06T22:42:58.578Z,99896.22
2023-01-06T22:45:27.200Z,99894.50
2023-01-06T22:47:55.834Z,99898.66
2023-01-06T22:50:24.895Z,99885.97
2023-01-06T22:52:53.524Z,99892.75
2023-01-06T22:55:24.669Z,99894.50
2023-01-06T22:57:53.276Z,99889.38
2023-01-06T23:00:23.409Z,99883.41
2023-01-06T23:02:52.082Z,99889.38
2023-01-06T23:05:20.829Z,99879.13
2023-01-06T23:07:49.448Z,99883.41
2023-01-06T23:10:18.245Z,99889.38
2023-01-06T23:12:46.942Z,99894.50
2023-01-06T23:15:15.735Z,99891.09
2023-01-06T23:17:46.239Z,99888.63
2023-01-06T23:20:14.860Z,99890.28
2023-01-06T23:22:43.493Z,99879.22
2023-01-06T23:25:12.364Z,99883.41
2023-01-06T23:27:41.255Z,99879.13
2023-01-06T23:30:11.464Z,99880.03
2023-01-06T23:32:40.078Z,99882.59
2023-01-06T23:35:10.720Z,99887.72
2023-01-06T23:37:39.295Z,99884.34
2023-01-06T23:40:09.868Z,99882.59
2023-01-06T23:42:48.078Z,99887.72
2023-01-06T23:45:17.561Z,99871.56
2023-01-06T23:47:46.185Z,99872.47
2023-01-06T23:50:16.303Z,99868.16
2023-01-06T23:52:44.872Z,99868.16
2023-01-06T23:55:13.509Z,99869.00
2023-01-06T23:57:42.154Z,99867.25
